Encantado, Brazil
Current Conditions -  °F | °C
As of 12:00 AM on Saturday 29 Nov 2014 (Local Time) from SBCO Reporting Station
Clear Clear  
Wind Chill: 68°   Ceiling: Unl
Heat Index: 68°   Visibility: 6mi
Dew Point: 64°   Wind: 8mph
Humidity: 88%   Direction: 120°ESE
Pressure: 30"   Gusts: NA
Location:  29.24°S, 51.87°W
Report Text: SBCO 290200Z 12007KT 090V150 CAVOK 20/18 Q1016
Loading
Personal Weather Stations






























Interactive Weather Map New forecast layout! Learn more

10-Day Weather Forecast

Advertisements
Track Severe Weather on mobile